sensor_id;sensor_type;location;lat;lon;timestamp;temperature;humidity
23079;DHT22;11707;50.830;4.364;2023-03-14T00:02:17;11.70;48.50
23079;DHT22;11707;50.830;4.364;2023-03-14T00:04:42;11.70;53.50
23079;DHT22;11707;50.830;4.364;2023-03-14T00:07:10;11.60;51.80
23079;DHT22;11707;50.830;4.364;2023-03-14T00:09:36;11.50;60.30
23079;DHT22;11707;50.830;4.364;2023-03-14T00:12:02;11.50;60.40
23079;DHT22;11707;50.830;4.364;2023-03-14T00:14:29;11.60;61.20
23079;DHT22;11707;50.830;4.364;2023-03-14T00:16:56;11.40;66.50
23079;DHT22;11707;50.830;4.364;2023-03-14T00:19:21;11.40;69.90
23079;DHT22;11707;50.830;4.364;2023-03-14T00:21:47;11.40;73.10
23079;DHT22;11707;50.830;4.364;2023-03-14T00:24:13;11.40;76.80
23079;DHT22;11707;50.830;4.364;2023-03-14T00:26:38;11.30;84.10
23079;DHT22;11707;50.830;4.364;2023-03-14T00:29:04;11.30;82.90
23079;DHT22;11707;50.830;4.364;2023-03-14T00:31:30;11.40;83.80
23079;DHT22;11707;50.830;4.364;2023-03-14T00:33:56;11.50;79.60
23079;DHT22;11707;50.830;4.364;2023-03-14T00:36:22;11.50;75.80
23079;DHT22;11707;50.830;4.364;2023-03-14T00:38:50;11.40;78.30
23079;DHT22;11707;50.830;4.364;2023-03-14T00:41:18;11.40;78.40
23079;DHT22;11707;50.830;4.364;2023-03-14T00:43:45;11.50;79.30
23079;DHT22;11707;50.830;4.364;2023-03-14T00:46:11;11.50;77.80
23079;DHT22;11707;50.830;4.364;2023-03-14T00:48:37;11.50;73.80
23079;DHT22;11707;50.830;4.364;2023-03-14T00:51:05;11.60;72.00
23079;DHT22;11707;50.830;4.364;2023-03-14T00:53:35;11.60;71.10
23079;DHT22;11707;50.830;4.364;2023-03-14T00:56:07;11.60;71.00
23079;DHT22;11707;50.830;4.364;2023-03-14T00:58:33;11.60;70.30
23079;DHT22;11707;50.830;4.364;2023-03-14T01:01:02;11.60;69.30
23079;DHT22;11707;50.830;4.364;2023-03-14T01:03:32;11.40;73.00
23079;DHT22;11707;50.830;4.364;2023-03-14T01:06:11;11.30;77.80
23079;DHT22;11707;50.830;4.364;2023-03-14T01:08:37;11.40;76.90
23079;DHT22;11707;50.830;4.364;2023-03-14T01:11:10;11.40;74.00
23079;DHT22;11707;50.830;4.364;2023-03-14T01:13:36;11.40;75.60
23079;DHT22;11707;50.830;4.364;2023-03-14T01:16:09;11.40;77.20
23079;DHT22;11707;50.830;4.364;2023-03-14T01:18:37;11.40;76.90
23079;DHT22;11707;50.830;4.364;2023-03-14T01:21:09;11.40;74.80
23079;DHT22;11707;50.830;4.364;2023-03-14T01:23:35;11.30;75.60
23079;DHT22;11707;50.830;4.364;2023-03-14T01:26:00;11.40;76.00
23079;DHT22;11707;50.830;4.364;2023-03-14T01:28:28;11.20;77.10
23079;DHT22;11707;50.830;4.364;2023-03-14T01:30:54;11.20;79.30
23079;DHT22;11707;50.830;4.364;2023-03-14T01:33:19;11.10;80.90
23079;DHT22;11707;50.830;4.364;2023-03-14T01:35:45;11.10;84.90
23079;DHT22;11707;50.830;4.364;2023-03-14T01:38:11;11.10;79.70
23079;DHT22;11707;50.830;4.364;2023-03-14T01:40:46;11.10;80.20
23079;DHT22;11707;50.830;4.364;2023-03-14T01:43:19;11.10;75.60
23079;DHT22;11707;50.830;4.364;2023-03-14T01:48:43;11.00;78.10
23079;DHT22;11707;50.830;4.364;2023-03-14T01:53:45;11.10;79.90
23079;DHT22;11707;50.830;4.364;2023-03-14T01:56:16;10.90;91.00
23079;DHT22;11707;50.830;4.364;2023-03-14T01:58:45;10.80;95.20
23079;DHT22;11707;50.830;4.364;2023-03-14T02:01:15;10.70;98.50
23079;DHT22;11707;50.830;4.364;2023-03-14T02:03:54;10.60;99.90
23079;DHT22;11707;50.830;4.364;2023-03-14T02:06:24;10.50;99.90
23079;DHT22;11707;50.830;4.364;2023-03-14T02:08:54;10.40;99.90
23079;DHT22;11707;50.830;4.364;2023-03-14T02:11:20;10.20;99.90
23079;DHT22;11707;50.830;4.364;2023-03-14T02:13:46;10.30;99.90
23079;DHT22;11707;50.830;4.364;2023-03-14T02:16:12;10.30;99.90
23079;DHT22;11707;50.830;4.364;2023-03-14T02:18:39;10.10;99.90
23079;DHT22;11707;50.830;4.364;2023-03-14T02:21:16;10.10;99.90
23079;DHT22;11707;50.830;4.364;2023-03-14T02:24:14;10.00;99.90
23079;DHT22;11707;50.830;4.364;2023-03-14T02:29:36;10.00;99.90
23079;DHT22;11707;50.830;4.364;2023-03-14T02:32:03;10.00;99.90
23079;DHT22;11707;50.830;4.364;2023-03-14T02:34:31;9.90;99.90
23079;DHT22;11707;50.830;4.364;2023-03-14T02:36:58;9.90;99.90
23079;DHT22;11707;50.830;4.364;2023-03-14T02:39:41;10.00;99.90
23079;DHT22;11707;50.830;4.364;2023-03-14T02:42:09;10.00;99.90
23079;DHT22;11707;50.830;4.364;2023-03-14T02:44:35;10.00;99.90
23079;DHT22;11707;50.830;4.364;2023-03-14T02:47:03;9.80;99.90
23079;DHT22;11707;50.830;4.364;2023-03-14T02:49:30;9.90;99.90
23079;DHT22;11707;50.830;4.364;2023-03-14T02:51:56;9.90;99.90
23079;DHT22;11707;50.830;4.364;2023-03-14T02:54:22;9.90;99.90
23079;DHT22;11707;50.830;4.364;2023-03-14T02:56:48;9.90;99.90
23079;DHT22;11707;50.830;4.364;2023-03-14T02:59:16;9.70;99.90
23079;DHT22;11707;50.830;4.364;2023-03-14T03:01:44;9.80;99.90
23079;DHT22;11707;50.830;4.364;2023-03-14T03:04:10;9.70;99.90
23079;DHT22;11707;50.830;4.364;2023-03-14T03:06:36;9.70;99.90
23079;DHT22;11707;50.830;4.364;2023-03-14T03:09:02;9.60;99.90
23079;DHT22;11707;50.830;4.364;2023-03-14T03:11:27;9.70;99.90
23079;DHT22;11707;50.830;4.364;2023-03-14T03:13:53;9.70;99.90
23079;DHT22;11707;50.830;4.364;2023-03-14T03:16:19;9.70;99.90
23079;DHT22;11707;50.830;4.364;2023-03-14T03:18:44;9.70;99.90
23079;DHT22;11707;50.830;4.364;2023-03-14T03:21:10;9.60;99.90
23079;DHT22;11707;50.830;4.364;2023-03-14T03:23:36;9.70;99.90
23079;DHT22;11707;50.830;4.364;2023-03-14T03:26:01;9.70;99.90
23079;DHT22;11707;50.830;4.364;2023-03-14T03:28:28;9.70;99.90
23079;DHT22;11707;50.830;4.364;2023-03-14T03:30:54;9.70;99.90
23079;DHT22;11707;50.830;4.364;2023-03-14T03:33:19;9.70;99.90
23079;DHT22;11707;50.830;4.364;2023-03-14T03:35:49;9.80;99.90
23079;DHT22;11707;50.830;4.364;2023-03-14T03:38:17;9.90;99.90
23079;DHT22;11707;50.830;4.364;2023-03-14T03:40:45;10.00;99.90
23079;DHT22;11707;50.830;4.364;2023-03-14T03:43:13;10.00;99.90
23079;DHT22;11707;50.830;4.364;2023-03-14T03:45:39;9.90;99.90
23079;DHT22;11707;50.830;4.364;2023-03-14T03:48:04;9.80;99.90
23079;DHT22;11707;50.830;4.364;2023-03-14T03:50:30;9.90;99.90
23079;DHT22;11707;50.830;4.364;2023-03-14T03:52:56;9.80;99.90
23079;DHT22;11707;50.830;4.364;2023-03-14T03:55:21;9.90;99.90
23079;DHT22;11707;50.830;4.364;2023-03-14T03:57:47;9.90;99.90
23079;DHT22;11707;50.830;4.364;2023-03-14T04:00:13;9.90;99.90
23079;DHT22;11707;50.830;4.364;2023-03-14T04:02:38;10.00;99.90
23079;DHT22;11707;50.830;4.364;2023-03-14T04:05:04;10.10;99.90
23079;DHT22;11707;50.830;4.364;2023-03-14T04:07:36;10.20;99.90
23079;DHT22;11707;50.830;4.364;2023-03-14T04:10:04;10.30;99.90
23079;DHT22;11707;50.830;4.364;2023-03-14T04:12:30;10.30;99.90
23079;DHT22;11707;50.830;4.364;2023-03-14T04:14:55;10.20;99.90
23079;DHT22;11707;50.830;4.364;2023-03-14T04:17:21;10.10;99.90
23079;DHT22;11707;50.830;4.364;2023-03-14T04:19:47;10.20;99.90
23079;DHT22;11707;50.830;4.364;2023-03-14T04:22:14;10.20;99.90
23079;DHT22;11707;50.830;4.364;2023-03-14T04:24:40;10.10;99.90
23079;DHT22;11707;50.830;4.364;2023-03-14T04:27:06;10.20;99.90
23079;DHT22;11707;50.830;4.364;2023-03-14T04:29:31;10.20;99.90
23079;DHT22;11707;50.830;4.364;2023-03-14T04:32:00;10.30;99.90
23079;DHT22;11707;50.830;4.364;2023-03-14T04:34:26;10.30;99.90
23079;DHT22;11707;50.830;4.364;2023-03-14T04:36:51;10.30;99.90
23079;DHT22;11707;50.830;4.364;2023-03-14T04:39:17;10.30;99.90
23079;DHT22;11707;50.830;4.364;2023-03-14T04:41:44;10.30;99.90
23079;DHT22;11707;50.830;4.364;2023-03-14T04:44:10;10.40;99.90
23079;DHT22;11707;50.830;4.364;2023-03-14T04:46:35;10.40;99.90
23079;DHT22;11707;50.830;4.364;2023-03-14T04:49:01;10.40;99.90
23079;DHT22;11707;50.830;4.364;2023-03-14T04:51:27;10.40;99.90
23079;DHT22;11707;50.830;4.364;2023-03-14T04:53:53;10.50;99.90
23079;DHT22;11707;50.830;4.364;2023-03-14T04:56:19;10.50;99.90
23079;DHT22;11707;50.830;4.364;2023-03-14T04:58:45;10.50;99.90
23079;DHT22;11707;50.830;4.364;2023-03-14T05:01:11;10.50;99.90
23079;DHT22;11707;50.830;4.364;2023-03-14T05:03:37;10.50;99.90
23079;DHT22;11707;50.830;4.364;2023-03-14T05:06:04;10.40;99.90
23079;DHT22;11707;50.830;4.364;2023-03-14T05:08:30;10.50;99.90
23079;DHT22;11707;50.830;4.364;2023-03-14T05:10:56;10.50;99.90
23079;DHT22;11707;50.830;4.364;2023-03-14T05:13:25;10.50;99.90
23079;DHT22;11707;50.830;4.364;2023-03-14T05:15:51;10.40;99.90
23079;DHT22;11707;50.830;4.364;2023-03-14T05:18:17;10.40;99.90
23079;DHT22;11707;50.830;4.364;2023-03-14T05:20:43;10.30;99.90
23079;DHT22;11707;50.830;4.364;2023-03-14T05:23:09;10.30;99.90
23079;DHT22;11707;50.830;4.364;2023-03-14T05:25:34;10.20;99.90
23079;DHT22;11707;50.830;4.364;2023-03-14T05:28:00;10.20;99.90
23079;DHT22;11707;50.830;4.364;2023-03-14T05:30:26;10.20;99.90
23079;DHT22;11707;50.830;4.364;2023-03-14T05:32:53;10.20;99.90
23079;DHT22;11707;50.830;4.364;2023-03-14T05:35:19;10.10;99.90
23079;DHT22;11707;50.830;4.364;2023-03-14T05:37:45;10.10;99.90
23079;DHT22;11707;50.830;4.364;2023-03-14T05:40:14;10.20;99.90
23079;DHT22;11707;50.830;4.364;2023-03-14T05:42:39;10.10;99.90
23079;DHT22;11707;50.830;4.364;2023-03-14T05:45:08;10.20;99.90
23079;DHT22;11707;50.830;4.364;2023-03-14T05:47:34;10.20;99.90
23079;DHT22;11707;50.830;4.364;2023-03-14T05:50:00;10.20;99.90
23079;DHT22;11707;50.830;4.364;2023-03-14T05:52:26;10.10;99.90
23079;DHT22;11707;50.830;4.364;2023-03-14T05:54:51;10.10;99.90
23079;DHT22;11707;50.830;4.364;2023-03-14T05:57:17;10.10;99.90
23079;DHT22;11707;50.830;4.364;2023-03-14T05:59:43;10.10;99.90
23079;DHT22;11707;50.830;4.364;2023-03-14T06:02:08;10.10;99.90
23079;DHT22;11707;50.830;4.364;2023-03-14T06:04:34;10.10;99.90
23079;DHT22;11707;50.830;4.364;2023-03-14T06:07:02;10.00;99.90
23079;DHT22;11707;50.830;4.364;2023-03-14T06:09:28;10.00;99.90
23079;DHT22;11707;50.830;4.364;2023-03-14T06:11:56;10.00;99.90
23079;DHT22;11707;50.830;4.364;2023-03-14T06:14:21;10.00;99.90
23079;DHT22;11707;50.830;4.364;2023-03-14T06:16:47;10.00;99.90
23079;DHT22;11707;50.830;4.364;2023-03-14T06:19:16;10.00;99.90
23079;DHT22;11707;50.830;4.364;2023-03-14T06:21:44;9.90;99.90
23079;DHT22;11707;50.830;4.364;2023-03-14T06:24:10;9.90;99.90
23079;DHT22;11707;50.830;4.364;2023-03-14T06:26:36;9.90;99.90
23079;DHT22;11707;50.830;4.364;2023-03-14T06:29:01;9.80;99.90
23079;DHT22;11707;50.830;4.364;2023-03-14T06:31:30;9.90;99.90
23079;DHT22;11707;50.830;4.364;2023-03-14T06:33:56;9.90;99.90
23079;DHT22;11707;50.830;4.364;2023-03-14T06:36:21;9.90;99.90
23079;DHT22;11707;50.830;4.364;2023-03-14T06:38:47;9.90;99.90
23079;DHT22;11707;50.830;4.364;2023-03-14T06:41:13;9.80;99.90
23079;DHT22;11707;50.830;4.364;2023-03-14T06:43:39;9.90;99.90
23079;DHT22;11707;50.830;4.364;2023-03-14T06:46:05;9.90;99.90
23079;DHT22;11707;50.830;4.364;2023-03-14T06:48:31;9.80;99.90
23079;DHT22;11707;50.830;4.364;2023-03-14T06:50:56;9.70;99.90
23079;DHT22;11707;50.830;4.364;2023-03-14T06:53:22;9.20;99.90
23079;DHT22;11707;50.830;4.364;2023-03-14T06:55:48;8.90;99.90
23079;DHT22;11707;50.830;4.364;2023-03-14T06:58:16;8.50;99.90
23079;DHT22;11707;50.830;4.364;2023-03-14T07:00:42;8.20;99.90
23079;DHT22;11707;50.830;4.364;2023-03-14T07:03:11;8.20;99.90
23079;DHT22;11707;50.830;4.364;2023-03-14T07:05:38;8.10;99.90
23079;DHT22;11707;50.830;4.364;2023-03-14T07:08:06;8.00;99.90
23079;DHT22;11707;50.830;4.364;2023-03-14T07:10:32;8.00;99.90
23079;DHT22;11707;50.830;4.364;2023-03-14T07:12:57;7.90;99.90
23079;DHT22;11707;50.830;4.364;2023-03-14T07:15:23;7.80;99.90
23079;DHT22;11707;50.830;4.364;2023-03-14T07:17:49;7.60;99.90
23079;DHT22;11707;50.830;4.364;2023-03-14T07:20:14;7.50;99.90
23079;DHT22;11707;50.830;4.364;2023-03-14T07:22:43;7.40;99.90
23079;DHT22;11707;50.830;4.364;2023-03-14T07:25:09;7.30;99.90
23079;DHT22;11707;50.830;4.364;2023-03-14T07:27:37;7.20;99.90
23079;DHT22;11707;50.830;4.364;2023-03-14T07:30:04;7.20;99.90
23079;DHT22;11707;50.830;4.364;2023-03-14T07:32:30;7.20;99.90
23079;DHT22;11707;50.830;4.364;2023-03-14T07:34:57;7.20;99.90
23079;DHT22;11707;50.830;4.364;2023-03-14T07:37:23;7.30;99.90
23079;DHT22;11707;50.830;4.364;2023-03-14T07:39:49;7.30;99.90
23079;DHT22;11707;50.830;4.364;2023-03-14T07:42:14;7.20;99.90
23079;DHT22;11707;50.830;4.364;2023-03-14T07:44:40;7.10;99.90
23079;DHT22;11707;50.830;4.364;2023-03-14T07:47:06;7.20;99.90
23079;DHT22;11707;50.830;4.364;2023-03-14T07:49:31;7.10;99.90
23079;DHT22;11707;50.830;4.364;2023-03-14T07:51:57;7.20;99.90
23079;DHT22;11707;50.830;4.364;2023-03-14T07:54:24;7.20;99.90
23079;DHT22;11707;50.830;4.364;2023-03-14T07:56:50;7.10;99.90
23079;DHT22;11707;50.830;4.364;2023-03-14T07:59:17;7.10;99.90
23079;DHT22;11707;50.830;4.364;2023-03-14T08:01:43;7.10;99.90
23079;DHT22;11707;50.830;4.364;2023-03-14T08:04:09;7.20;99.90
23079;DHT22;11707;50.830;4.364;2023-03-14T08:06:36;7.20;99.90
23079;DHT22;11707;50.830;4.364;2023-03-14T08:09:02;7.30;99.90
23079;DHT22;11707;50.830;4.364;2023-03-14T08:11:30;7.30;99.90
23079;DHT22;11707;50.830;4.364;2023-03-14T08:13:56;7.30;99.90
23079;DHT22;11707;50.830;4.364;2023-03-14T08:16:24;7.30;99.90
23079;DHT22;11707;50.830;4.364;2023-03-14T08:18:50;7.30;99.90
23079;DHT22;11707;50.830;4.364;2023-03-14T08:21:15;7.30;99.90
23079;DHT22;11707;50.830;4.364;2023-03-14T08:23:41;7.20;99.90
23079;DHT22;11707;50.830;4.364;2023-03-14T08:26:07;7.20;99.90
23079;DHT22;11707;50.830;4.364;2023-03-14T08:28:35;7.10;99.90
23079;DHT22;11707;50.830;4.364;2023-03-14T08:31:03;7.10;99.90
23079;DHT22;11707;50.830;4.364;2023-03-14T08:33:29;7.10;99.90
23079;DHT22;11707;50.830;4.364;2023-03-14T08:35:57;7.10;99.90
23079;DHT22;11707;50.830;4.364;2023-03-14T08:38:23;6.90;99.90
23079;DHT22;11707;50.830;4.364;2023-03-14T08:40:49;6.90;99.90
23079;DHT22;11707;50.830;4.364;2023-03-14T08:43:15;6.80;99.90
23079;DHT22;11707;50.830;4.364;2023-03-14T08:45:41;6.60;99.90
23079;DHT22;11707;50.830;4.364;2023-03-14T08:48:07;6.70;99.90
23079;DHT22;11707;50.830;4.364;2023-03-14T08:50:33;6.60;99.90
23079;DHT22;11707;50.830;4.364;2023-03-14T08:52:59;6.50;99.90
23079;DHT22;11707;50.830;4.364;2023-03-14T08:55:26;6.50;99.90
23079;DHT22;11707;50.830;4.364;2023-03-14T08:57:57;6.40;99.90
23079;DHT22;11707;50.830;4.364;2023-03-14T09:00:28;6.50;99.90
23079;DHT22;11707;50.830;4.364;2023-03-14T09:02:54;6.50;99.90
23079;DHT22;11707;50.830;4.364;2023-03-14T09:05:19;6.40;99.90
23079;DHT22;11707;50.830;4.364;2023-03-14T09:07:46;6.40;99.90
23079;DHT22;11707;50.830;4.364;2023-03-14T09:10:12;6.50;99.90
23079;DHT22;11707;50.830;4.364;2023-03-14T09:12:37;6.50;99.90
23079;DHT22;11707;50.830;4.364;2023-03-14T09:15:04;6.50;99.90
23079;DHT22;11707;50.830;4.364;2023-03-14T09:17:29;6.50;99.90
23079;DHT22;11707;50.830;4.364;2023-03-14T09:19:55;6.50;99.90
23079;DHT22;11707;50.830;4.364;2023-03-14T09:22:21;6.50;99.90
23079;DHT22;11707;50.830;4.364;2023-03-14T09:24:47;6.50;99.90
23079;DHT22;11707;50.830;4.364;2023-03-14T09:27:13;6.40;99.90
23079;DHT22;11707;50.830;4.364;2023-03-14T09:29:38;6.50;99.90
23079;DHT22;11707;50.830;4.364;2023-03-14T09:32:04;6.60;99.90
23079;DHT22;11707;50.830;4.364;2023-03-14T09:34:30;6.50;99.90
23079;DHT22;11707;50.830;4.364;2023-03-14T09:36:58;6.60;99.90
23079;DHT22;11707;50.830;4.364;2023-03-14T09:39:25;6.50;99.90
23079;DHT22;11707;50.830;4.364;2023-03-14T09:41:52;6.50;99.90
23079;DHT22;11707;50.830;4.364;2023-03-14T09:44:29;6.60;99.90
23079;DHT22;11707;50.830;4.364;2023-03-14T09:46:58;6.60;99.90
23079;DHT22;11707;50.830;4.364;2023-03-14T09:49:34;6.60;99.90
23079;DHT22;11707;50.830;4.364;2023-03-14T09:52:02;6.60;99.90
23079;DHT22;11707;50.830;4.364;2023-03-14T09:54:36;6.60;99.90
23079;DHT22;11707;50.830;4.364;2023-03-14T09:57:05;6.70;99.90
23079;DHT22;11707;50.830;4.364;2023-03-14T09:59:31;6.70;99.90
23079;DHT22;11707;50.830;4.364;2023-03-14T10:02:17;6.70;99.90
23079;DHT22;11707;50.830;4.364;2023-03-14T10:04:45;6.70;99.90
23079;DHT22;11707;50.830;4.364;2023-03-14T10:07:16;6.80;99.90
23079;DHT22;11707;50.830;4.364;2023-03-14T10:09:45;6.80;99.90
23079;DHT22;11707;50.830;4.364;2023-03-14T10:12:11;6.80;99.90
23079;DHT22;11707;50.830;4.364;2023-03-14T10:14:48;6.80;99.90
23079;DHT22;11707;50.830;4.364;2023-03-14T10:17:15;6.80;99.90
23079;DHT22;11707;50.830;4.364;2023-03-14T10:19:53;6.90;99.90
23079;DHT22;11707;50.830;4.364;2023-03-14T10:22:19;6.90;99.90
23079;DHT22;11707;50.830;4.364;2023-03-14T10:24:54;6.80;99.90
23079;DHT22;11707;50.830;4.364;2023-03-14T10:27:33;6.90;99.90
23079;DHT22;11707;50.830;4.364;2023-03-14T10:30:07;6.70;99.90
23079;DHT22;11707;50.830;4.364;2023-03-14T10:32:36;6.50;99.90
23079;DHT22;11707;50.830;4.364;2023-03-14T10:35:18;6.50;99.90
23079;DHT22;11707;50.830;4.364;2023-03-14T10:37:56;6.40;99.90
23079;DHT22;11707;50.830;4.364;2023-03-14T10:40:31;6.30;99.90
23079;DHT22;11707;50.830;4.364;2023-03-14T10:42:59;6.20;99.90
23079;DHT22;11707;50.830;4.364;2023-03-14T10:45:34;6.30;99.90
23079;DHT22;11707;50.830;4.364;2023-03-14T10:51:17;6.20;99.90
23079;DHT22;11707;50.830;4.364;2023-03-14T10:53:46;6.10;99.90
23079;DHT22;11707;50.830;4.364;2023-03-14T10:56:20;6.20;99.90
23079;DHT22;11707;50.830;4.364;2023-03-14T10:58:49;6.20;99.90
23079;DHT22;11707;50.830;4.364;2023-03-14T11:01:32;6.10;99.90
23079;DHT22;11707;50.830;4.364;2023-03-14T11:09:46;6.00;99.90
23079;DHT22;11707;50.830;4.364;2023-03-14T11:15:00;5.90;99.90
23079;DHT22;11707;50.830;4.364;2023-03-14T11:17:38;5.80;99.90
23079;DHT22;11707;50.830;4.364;2023-03-14T11:22:48;6.00;99.90
23079;DHT22;11707;50.830;4.364;2023-03-14T11:25:26;6.00;99.90
23079;DHT22;11707;50.830;4.364;2023-03-14T11:28:05;5.90;99.90
23079;DHT22;11707;50.830;4.364;2023-03-14T11:33:15;5.80;99.90
23079;DHT22;11707;50.830;4.364;2023-03-14T11:40:58;5.50;99.90
23079;DHT22;11707;50.830;4.364;2023-03-14T11:43:34;5.30;99.90
23079;DHT22;11707;50.830;4.364;2023-03-14T11:46:10;5.30;99.90
23079;DHT22;11707;50.830;4.364;2023-03-14T11:51:39;5.10;99.90
23079;DHT22;11707;50.830;4.364;2023-03-14T11:57:05;4.90;99.90
23079;DHT22;11707;50.830;4.364;2023-03-14T11:59:50;4.90;99.90
23079;DHT22;11707;50.830;4.364;2023-03-14T12:10:53;5.00;99.90
23079;DHT22;11707;50.830;4.364;2023-03-14T12:13:20;4.90;99.90
23079;DHT22;11707;50.830;4.364;2023-03-14T12:15:58;5.00;99.90
23079;DHT22;11707;50.830;4.364;2023-03-14T12:18:36;5.00;99.90
23079;DHT22;11707;50.830;4.364;2023-03-14T12:21:08;5.10;99.90
23079;DHT22;11707;50.830;4.364;2023-03-14T12:34:41;5.20;99.90
23079;DHT22;11707;50.830;4.364;2023-03-14T12:37:33;5.20;99.90
23079;DHT22;11707;50.830;4.364;2023-03-14T12:40:20;5.20;99.90
23079;DHT22;11707;50.830;4.364;2023-03-14T12:43:01;5.20;99.90
23079;DHT22;11707;50.830;4.364;2023-03-14T12:45:33;5.20;99.90
23079;DHT22;11707;50.830;4.364;2023-03-14T12:48:24;5.20;99.90
23079;DHT22;11707;50.830;4.364;2023-03-14T12:50:55;5.30;99.90
23079;DHT22;11707;50.830;4.364;2023-03-14T12:56:45;5.10;99.90
23079;DHT22;11707;50.830;4.364;2023-03-14T13:02:43;5.20;99.90
23079;DHT22;11707;50.830;4.364;2023-03-14T13:05:20;5.10;99.90
23079;DHT22;11707;50.830;4.364;2023-03-14T13:10:45;5.10;99.90
23079;DHT22;11707;50.830;4.364;2023-03-14T13:13:16;5.20;99.90
23079;DHT22;11707;50.830;4.364;2023-03-14T13:15:47;5.40;99.90
23079;DHT22;11707;50.830;4.364;2023-03-14T13:18:23;5.40;99.90
23079;DHT22;11707;50.830;4.364;2023-03-14T13:21:11;5.40;99.90
23079;DHT22;11707;50.830;4.364;2023-03-14T13:23:38;5.40;99.90
23079;DHT22;11707;50.830;4.364;2023-03-14T13:26:10;5.40;99.90
23079;DHT22;11707;50.830;4.364;2023-03-14T13:28:36;5.40;99.90
23079;DHT22;11707;50.830;4.364;2023-03-14T13:31:03;5.50;99.90
23079;DHT22;11707;50.830;4.364;2023-03-14T13:33:33;5.60;99.90
23079;DHT22;11707;50.830;4.364;2023-03-14T13:36:04;5.40;99.90
23079;DHT22;11707;50.830;4.364;2023-03-14T13:38:32;5.40;99.90
23079;DHT22;11707;50.830;4.364;2023-03-14T13:41:00;5.40;99.90
23079;DHT22;11707;50.830;4.364;2023-03-14T13:43:35;5.40;99.90
23079;DHT22;11707;50.830;4.364;2023-03-14T13:46:05;5.40;99.90
23079;DHT22;11707;50.830;4.364;2023-03-14T13:48:33;5.40;99.90
23079;DHT22;11707;50.830;4.364;2023-03-14T13:51:05;5.50;99.90
23079;DHT22;11707;50.830;4.364;2023-03-14T13:53:44;5.50;99.90
23079;DHT22;11707;50.830;4.364;2023-03-14T13:56:10;5.60;99.90
23079;DHT22;11707;50.830;4.364;2023-03-14T13:58:38;5.70;99.90
23079;DHT22;11707;50.830;4.364;2023-03-14T14:01:10;5.70;99.90
23079;DHT22;11707;50.830;4.364;2023-03-14T14:03:39;5.70;99.90
23079;DHT22;11707;50.830;4.364;2023-03-14T14:09:02;5.70;99.90
23079;DHT22;11707;50.830;4.364;2023-03-14T14:11:54;5.90;99.90
23079;DHT22;11707;50.830;4.364;2023-03-14T14:14:32;5.90;99.90
23079;DHT22;11707;50.830;4.364;2023-03-14T14:17:00;6.10;99.90
23079;DHT22;11707;50.830;4.364;2023-03-14T14:19:28;6.20;99.90
23079;DHT22;11707;50.830;4.364;2023-03-14T14:21:58;6.40;99.90
23079;DHT22;11707;50.830;4.364;2023-03-14T14:24:25;6.50;99.90
23079;DHT22;11707;50.830;4.364;2023-03-14T14:26:58;6.60;94.00
23079;DHT22;11707;50.830;4.364;2023-03-14T14:29:30;6.70;89.30
23079;DHT22;11707;50.830;4.364;2023-03-14T14:34:56;6.80;18.20
23079;DHT22;11707;50.830;4.364;2023-03-14T14:37:27;6.90;1.00
23079;DHT22;11707;50.830;4.364;2023-03-14T14:39:59;6.90;1.00
23079;DHT22;11707;50.830;4.364;2023-03-14T14:42:27;6.80;1.00
23079;DHT22;11707;50.830;4.364;2023-03-14T14:44:56;6.80;99.90
23079;DHT22;11707;50.830;4.364;2023-03-14T14:47:24;6.70;1.00
23079;DHT22;11707;50.830;4.364;2023-03-14T14:49:54;6.60;99.90
23079;DHT22;11707;50.830;4.364;2023-03-14T14:52:31;6.40;99.90
23079;DHT22;11707;50.830;4.364;2023-03-14T14:55:01;6.10;99.90
23079;DHT22;11707;50.830;4.364;2023-03-14T14:57:32;6.00;99.90
23079;DHT22;11707;50.830;4.364;2023-03-14T15:00:10;5.90;1.00
23079;DHT22;11707;50.830;4.364;2023-03-14T15:02:48;5.60;1.00
23079;DHT22;11707;50.830;4.364;2023-03-14T15:07:43;5.40;99.90
23079;DHT22;11707;50.830;4.364;2023-03-14T15:10:12;5.30;99.90
23079;DHT22;11707;50.830;4.364;2023-03-14T15:12:37;5.20;99.90
23079;DHT22;11707;50.830;4.364;2023-03-14T15:15:04;5.30;99.90
23079;DHT22;11707;50.830;4.364;2023-03-14T15:17:32;5.40;99.90
23079;DHT22;11707;50.830;4.364;2023-03-14T15:19:58;5.70;99.90
23079;DHT22;11707;50.830;4.364;2023-03-14T15:22:24;5.90;1.00
23079;DHT22;11707;50.830;4.364;2023-03-14T15:24:50;6.00;99.90
23079;DHT22;11707;50.830;4.364;2023-03-14T15:27:17;6.00;99.90
23079;DHT22;11707;50.830;4.364;2023-03-14T15:29:43;6.20;1.00
23079;DHT22;11707;50.830;4.364;2023-03-14T15:32:14;6.30;99.90
23079;DHT22;11707;50.830;4.364;2023-03-14T15:34:41;6.30;1.00
23079;DHT22;11707;50.830;4.364;2023-03-14T15:37:15;6.40;1.00
23079;DHT22;11707;50.830;4.364;2023-03-14T15:39:45;6.50;1.00
23079;DHT22;11707;50.830;4.364;2023-03-14T15:42:13;6.60;1.00
23079;DHT22;11707;50.830;4.364;2023-03-14T15:44:39;6.50;99.90
23079;DHT22;11707;50.830;4.364;2023-03-14T15:47:09;6.60;1.00
23079;DHT22;11707;50.830;4.364;2023-03-14T15:49:35;6.70;1.00
23079;DHT22;11707;50.830;4.364;2023-03-14T15:52:02;6.60;99.90
23079;DHT22;11707;50.830;4.364;2023-03-14T15:54:28;6.60;99.90
23079;DHT22;11707;50.830;4.364;2023-03-14T15:56:57;6.60;1.00
23079;DHT22;11707;50.830;4.364;2023-03-14T15:59:26;6.60;99.90
23079;DHT22;11707;50.830;4.364;2023-03-14T16:01:52;6.60;1.00
23079;DHT22;11707;50.830;4.364;2023-03-14T16:04:18;6.50;1.00
23079;DHT22;11707;50.830;4.364;2023-03-14T16:06:44;6.40;99.90
23079;DHT22;11707;50.830;4.364;2023-03-14T16:09:11;6.40;95.80
23079;DHT22;11707;50.830;4.364;2023-03-14T16:11:37;6.50;26.10
23079;DHT22;11707;50.830;4.364;2023-03-14T16:14:03;6.50;63.90
23079;DHT22;11707;50.830;4.364;2023-03-14T16:16:29;6.60;1.00
23079;DHT22;11707;50.830;4.364;2023-03-14T16:18:55;6.70;37.40
23079;DHT22;11707;50.830;4.364;2023-03-14T16:21:21;6.70;99.90
23079;DHT22;11707;50.830;4.364;2023-03-14T16:23:47;6.60;1.00
23079;DHT22;11707;50.830;4.364;2023-03-14T16:26:15;6.60;99.90
23079;DHT22;11707;50.830;4.364;2023-03-14T16:28:41;6.50;1.00
23079;DHT22;11707;50.830;4.364;2023-03-14T16:31:10;6.50;70.30
23079;DHT22;11707;50.830;4.364;2023-03-14T16:33:37;6.40;99.90
23079;DHT22;11707;50.830;4.364;2023-03-14T16:36:05;6.40;99.90
23079;DHT22;11707;50.830;4.364;2023-03-14T16:38:33;6.50;99.90
23079;DHT22;11707;50.830;4.364;2023-03-14T16:41:06;6.50;99.90
23079;DHT22;11707;50.830;4.364;2023-03-14T16:43:34;6.60;99.90
23079;DHT22;11707;50.830;4.364;2023-03-14T16:46:04;6.60;99.90
23079;DHT22;11707;50.830;4.364;2023-03-14T16:48:30;6.70;99.90
23079;DHT22;11707;50.830;4.364;2023-03-14T16:50:58;6.70;99.90
23079;DHT22;11707;50.830;4.364;2023-03-14T16:53:24;6.70;99.90
23079;DHT22;11707;50.830;4.364;2023-03-14T16:55:53;6.70;99.90
23079;DHT22;11707;50.830;4.364;2023-03-14T16:58:19;6.70;99.90
23079;DHT22;11707;50.830;4.364;2023-03-14T17:00:46;6.70;99.90
23079;DHT22;11707;50.830;4.364;2023-03-14T17:03:12;6.60;99.90
23079;DHT22;11707;50.830;4.364;2023-03-14T17:05:44;6.70;1.00